sensor_id;sensor_type;location;lat;lon;timestamp;pressure;altitude;pressure_sealevel;temperature;humidity
80102;BME280;69407;44.966;19.622;2023-06-04T00:01:26;101072.75;;;15.72;69.83
80102;BME280;69407;44.966;19.622;2023-06-04T00:03:51;101078.38;;;15.51;71.50
80102;BME280;69407;44.966;19.622;2023-06-04T00:06:18;101082.09;;;15.79;69.95
80102;BME280;69407;44.966;19.622;2023-06-04T00:08:43;101080.50;;;15.61;70.81
80102;BME280;69407;44.966;19.622;2023-06-04T00:11:09;101075.31;;;15.73;70.38
80102;BME280;69407;44.966;19.622;2023-06-04T00:13:34;101073.47;;;15.60;71.20
80102;BME280;69407;44.966;19.622;2023-06-04T00:16:00;101081.81;;;15.53;72.50
80102;BME280;69407;44.966;19.622;2023-06-04T00:18:25;101077.75;;;15.62;72.45
80102;BME280;69407;44.966;19.622;2023-06-04T00:20:51;101082.34;;;15.44;73.92
80102;BME280;69407;44.966;19.622;2023-06-04T00:23:17;101074.31;;;15.30;73.16
80102;BME280;69407;44.966;19.622;2023-06-04T00:25:42;101074.25;;;15.46;72.21
80102;BME280;69407;44.966;19.622;2023-06-04T00:28:07;101081.03;;;15.21;72.94
80102;BME280;69407;44.966;19.622;2023-06-04T00:30:33;101079.31;;;15.20;71.63
80102;BME280;69407;44.966;19.622;2023-06-04T00:32:59;101078.69;;;15.31;71.48
80102;BME280;69407;44.966;19.622;2023-06-04T00:35:24;101077.56;;;15.35;71.28
80102;BME280;69407;44.966;19.622;2023-06-04T00:37:50;101072.19;;;15.21;71.46
80102;BME280;69407;44.966;19.622;2023-06-04T00:40:15;101077.00;;;15.14;71.29
80102;BME280;69407;44.966;19.622;2023-06-04T00:42:41;101078.97;;;15.27;70.74
80102;BME280;69407;44.966;19.622;2023-06-04T00:45:07;101075.34;;;15.28;70.73
80102;BME280;69407;44.966;19.622;2023-06-04T00:47:35;101076.13;;;15.14;71.58
80102;BME280;69407;44.966;19.622;2023-06-04T00:50:00;101069.19;;;15.11;70.42
80102;BME280;69407;44.966;19.622;2023-06-04T00:52:26;101068.06;;;15.15;69.94
80102;BME280;69407;44.966;19.622;2023-06-04T00:54:52;101057.91;;;15.22;70.00
80102;BME280;69407;44.966;19.622;2023-06-04T00:57:20;101067.56;;;15.09;70.63
80102;BME280;69407;44.966;19.622;2023-06-04T00:59:46;101062.13;;;15.10;69.22
80102;BME280;69407;44.966;19.622;2023-06-04T01:02:15;101061.81;;;15.16;69.09
80102;BME280;69407;44.966;19.622;2023-06-04T01:07:18;101043.97;;;15.33;67.02
80102;BME280;69407;44.966;19.622;2023-06-04T01:09:44;101047.00;;;15.27;67.07
80102;BME280;69407;44.966;19.622;2023-06-04T01:12:10;101043.94;;;15.18;67.31
80102;BME280;69407;44.966;19.622;2023-06-04T01:14:36;101046.50;;;15.20;65.58
80102;BME280;69407;44.966;19.622;2023-06-04T01:17:10;101044.06;;;15.31;64.48
80102;BME280;69407;44.966;19.622;2023-06-04T01:22:44;101040.66;;;15.29;64.14
80102;BME280;69407;44.966;19.622;2023-06-04T01:27:56;101045.22;;;15.11;65.03
80102;BME280;69407;44.966;19.622;2023-06-04T01:30:25;101037.94;;;15.15;64.66
80102;BME280;69407;44.966;19.622;2023-06-04T01:32:54;101040.75;;;15.28;64.42
80102;BME280;69407;44.966;19.622;2023-06-04T01:35:20;101037.56;;;15.21;64.60
80102;BME280;69407;44.966;19.622;2023-06-04T01:37:46;101048.75;;;15.12;65.59
80102;BME280;69407;44.966;19.622;2023-06-04T01:40:13;101047.72;;;14.99;66.10
80102;BME280;69407;44.966;19.622;2023-06-04T01:42:40;101042.69;;;15.24;66.47
80102;BME280;69407;44.966;19.622;2023-06-04T01:45:05;101047.41;;;15.05;66.03
80102;BME280;69407;44.966;19.622;2023-06-04T01:47:31;101048.88;;;14.94;67.15
80102;BME280;69407;44.966;19.622;2023-06-04T01:49:56;101044.56;;;14.92;67.33
80102;BME280;69407;44.966;19.622;2023-06-04T01:52:22;101036.94;;;14.86;66.67
80102;BME280;69407;44.966;19.622;2023-06-04T01:54:47;101032.91;;;14.94;65.08
80102;BME280;69407;44.966;19.622;2023-06-04T01:57:18;101044.50;;;14.93;65.63
80102;BME280;69407;44.966;19.622;2023-06-04T01:59:44;101038.06;;;14.82;66.00
80102;BME280;69407;44.966;19.622;2023-06-04T02:02:10;101035.13;;;14.86;66.78
80102;BME280;69407;44.966;19.622;2023-06-04T02:04:35;101031.38;;;14.90;65.37
80102;BME280;69407;44.966;19.622;2023-06-04T02:07:02;101031.41;;;14.89;65.95
80102;BME280;69407;44.966;19.622;2023-06-04T02:09:28;101032.41;;;14.72;66.06
80102;BME280;69407;44.966;19.622;2023-06-04T02:11:53;101031.97;;;14.80;66.31
80102;BME280;69407;44.966;19.622;2023-06-04T02:14:19;101032.84;;;14.80;65.78
80102;BME280;69407;44.966;19.622;2023-06-04T02:16:44;101033.06;;;14.76;66.64
80102;BME280;69407;44.966;19.622;2023-06-04T02:19:15;101037.28;;;14.64;66.93
80102;BME280;69407;44.966;19.622;2023-06-04T02:21:40;101038.59;;;14.57;66.38
80102;BME280;69407;44.966;19.622;2023-06-04T02:24:06;101041.84;;;14.46;67.82
80102;BME280;69407;44.966;19.622;2023-06-04T02:26:31;101040.53;;;14.85;66.28
80102;BME280;69407;44.966;19.622;2023-06-04T02:28:57;101041.59;;;14.67;68.49
80102;BME280;69407;44.966;19.622;2023-06-04T02:31:23;101044.66;;;14.90;68.58
80102;BME280;69407;44.966;19.622;2023-06-04T02:33:48;101038.94;;;14.67;69.23
80102;BME280;69407;44.966;19.622;2023-06-04T02:36:14;101039.44;;;14.24;70.41
80102;BME280;69407;44.966;19.622;2023-06-04T02:38:40;101044.09;;;14.21;70.86
80102;BME280;69407;44.966;19.622;2023-06-04T02:41:06;101039.72;;;14.20;70.69
80102;BME280;69407;44.966;19.622;2023-06-04T02:43:31;101044.50;;;14.29;69.96
80102;BME280;69407;44.966;19.622;2023-06-04T02:45:57;101047.88;;;14.32;71.98
80102;BME280;69407;44.966;19.622;2023-06-04T02:48:22;101042.66;;;13.98;72.15
80102;BME280;69407;44.966;19.622;2023-06-04T02:50:47;101047.47;;;14.07;71.55
80102;BME280;69407;44.966;19.622;2023-06-04T02:53:13;101043.88;;;14.08;71.23
80102;BME280;69407;44.966;19.622;2023-06-04T02:55:39;101045.59;;;14.09;73.02
80102;BME280;69407;44.966;19.622;2023-06-04T02:58:07;101039.59;;;14.05;71.71
80102;BME280;69407;44.966;19.622;2023-06-04T03:00:34;101039.09;;;14.15;70.81
80102;BME280;69407;44.966;19.622;2023-06-04T03:03:00;101044.75;;;14.08;71.33
80102;BME280;69407;44.966;19.622;2023-06-04T03:05:29;101050.28;;;14.04;72.83
80102;BME280;69407;44.966;19.622;2023-06-04T03:07:57;101055.31;;;14.26;71.78
80102;BME280;69407;44.966;19.622;2023-06-04T03:10:24;101054.31;;;13.95;73.65
80102;BME280;69407;44.966;19.622;2023-06-04T03:12:49;101057.81;;;13.96;73.10
80102;BME280;69407;44.966;19.622;2023-06-04T03:15:15;101052.38;;;13.64;73.91
80102;BME280;69407;44.966;19.622;2023-06-04T03:17:41;101054.19;;;13.81;74.00
80102;BME280;69407;44.966;19.622;2023-06-04T03:20:07;101049.13;;;13.92;72.43
80102;BME280;69407;44.966;19.622;2023-06-04T03:22:33;101050.72;;;13.96;72.52
80102;BME280;69407;44.966;19.622;2023-06-04T03:25:01;101050.78;;;13.95;72.72
80102;BME280;69407;44.966;19.622;2023-06-04T03:27:26;101053.09;;;14.18;69.96
80102;BME280;69407;44.966;19.622;2023-06-04T03:29:52;101051.47;;;14.31;68.46
80102;BME280;69407;44.966;19.622;2023-06-04T03:32:17;101060.41;;;14.30;68.59
80102;BME280;69407;44.966;19.622;2023-06-04T03:34:43;101064.84;;;14.30;68.37
80102;BME280;69407;44.966;19.622;2023-06-04T03:37:09;101065.19;;;14.40;68.55
80102;BME280;69407;44.966;19.622;2023-06-04T03:39:35;101055.56;;;14.54;69.44
80102;BME280;69407;44.966;19.622;2023-06-04T03:42:00;101068.53;;;14.27;68.94
80102;BME280;69407;44.966;19.622;2023-06-04T03:44:26;101069.56;;;14.41;69.45
80102;BME280;69407;44.966;19.622;2023-06-04T03:46:51;101063.69;;;14.51;68.29
80102;BME280;69407;44.966;19.622;2023-06-04T03:49:17;101073.84;;;14.76;68.11
80102;BME280;69407;44.966;19.622;2023-06-04T03:51:43;101074.88;;;14.58;69.36
80102;BME280;69407;44.966;19.622;2023-06-04T03:54:08;101076.84;;;14.37;70.58
80102;BME280;69407;44.966;19.622;2023-06-04T03:56:34;101082.22;;;14.53;69.74
80102;BME280;69407;44.966;19.622;2023-06-04T03:58:59;101084.06;;;14.68;68.72
80102;BME280;69407;44.966;19.622;2023-06-04T04:01:26;101095.13;;;14.60;69.81
80102;BME280;69407;44.966;19.622;2023-06-04T04:03:52;101100.38;;;14.93;68.46
80102;BME280;69407;44.966;19.622;2023-06-04T04:06:19;101094.63;;;14.85;67.97
80102;BME280;69407;44.966;19.622;2023-06-04T04:08:45;101095.13;;;14.76;68.64
80102;BME280;69407;44.966;19.622;2023-06-04T04:11:14;101086.72;;;14.84;68.11
80102;BME280;69407;44.966;19.622;2023-06-04T04:13:40;101093.13;;;15.11;68.64
80102;BME280;69407;44.966;19.622;2023-06-04T04:16:06;101092.88;;;15.00;68.86
80102;BME280;69407;44.966;19.622;2023-06-04T04:18:35;101093.28;;;15.24;68.62
80102;BME280;69407;44.966;19.622;2023-06-04T04:21:02;101091.50;;;15.09;69.56
80102;BME280;69407;44.966;19.622;2023-06-04T04:23:29;101098.56;;;15.10;71.40
80102;BME280;69407;44.966;19.622;2023-06-04T04:25:54;101091.38;;;15.26;70.67
80102;BME280;69407;44.966;19.622;2023-06-04T04:28:22;101098.53;;;15.25;70.41
80102;BME280;69407;44.966;19.622;2023-06-04T04:30:48;101094.84;;;15.28;70.61
80102;BME280;69407;44.966;19.622;2023-06-04T04:33:14;101088.91;;;15.39;70.25
80102;BME280;69407;44.966;19.622;2023-06-04T04:35:42;101091.34;;;15.28;71.76
80102;BME280;69407;44.966;19.622;2023-06-04T04:38:09;101086.53;;;15.48;71.10
80102;BME280;69407;44.966;19.622;2023-06-04T04:40:36;101095.03;;;15.55;71.43
80102;BME280;69407;44.966;19.622;2023-06-04T04:43:02;101091.25;;;15.75;71.53
80102;BME280;69407;44.966;19.622;2023-06-04T04:45:27;101089.88;;;15.68;72.38
80102;BME280;69407;44.966;19.622;2023-06-04T04:47:52;101088.09;;;15.82;72.67
80102;BME280;69407;44.966;19.622;2023-06-04T04:50:18;101090.13;;;15.93;72.78
80102;BME280;69407;44.966;19.622;2023-06-04T04:52:43;101091.81;;;15.94;73.29
80102;BME280;69407;44.966;19.622;2023-06-04T04:55:09;101088.31;;;16.08;74.24
80102;BME280;69407;44.966;19.622;2023-06-04T04:57:35;101093.63;;;15.94;75.11
80102;BME280;69407;44.966;19.622;2023-06-04T05:00:02;101100.44;;;16.14;75.08
80102;BME280;69407;44.966;19.622;2023-06-04T05:02:30;101097.66;;;16.15;76.15
80102;BME280;69407;44.966;19.622;2023-06-04T05:04:55;101096.81;;;16.29;74.97
80102;BME280;69407;44.966;19.622;2023-06-04T05:07:21;101093.09;;;16.31;76.30
80102;BME280;69407;44.966;19.622;2023-06-04T05:09:48;101097.47;;;16.47;77.40
80102;BME280;69407;44.966;19.622;2023-06-04T05:12:14;101092.06;;;16.48;78.43
80102;BME280;69407;44.966;19.622;2023-06-04T05:14:39;101088.41;;;16.78;77.71
80102;BME280;69407;44.966;19.622;2023-06-04T05:17:07;101092.81;;;17.06;77.96
80102;BME280;69407;44.966;19.622;2023-06-04T05:19:34;101103.31;;;17.09;78.24
80102;BME280;69407;44.966;19.622;2023-06-04T05:22:00;101098.31;;;17.17;78.81
80102;BME280;69407;44.966;19.622;2023-06-04T05:24:28;101101.72;;;17.33;78.30
80102;BME280;69407;44.966;19.622;2023-06-04T05:26:55;101102.34;;;17.37;80.27
80102;BME280;69407;44.966;19.622;2023-06-04T05:29:22;101100.78;;;17.47;81.04
80102;BME280;69407;44.966;19.622;2023-06-04T05:31:47;101099.97;;;17.59;81.04
80102;BME280;69407;44.966;19.622;2023-06-04T05:34:13;101098.47;;;17.68;81.38
80102;BME280;69407;44.966;19.622;2023-06-04T05:36:42;101101.41;;;17.77;81.36
80102;BME280;69407;44.966;19.622;2023-06-04T05:39:07;101100.25;;;17.81;80.53
80102;BME280;69407;44.966;19.622;2023-06-04T05:41:34;101105.81;;;17.91;80.74
80102;BME280;69407;44.966;19.622;2023-06-04T05:43:59;101109.16;;;17.95;80.84
80102;BME280;69407;44.966;19.622;2023-06-04T05:46:25;101122.09;;;18.13;81.00
80102;BME280;69407;44.966;19.622;2023-06-04T05:48:53;101119.22;;;18.29;80.25
80102;BME280;69407;44.966;19.622;2023-06-04T05:51:20;101121.34;;;18.37;79.22
80102;BME280;69407;44.966;19.622;2023-06-04T05:53:46;101129.91;;;18.55;79.58
80102;BME280;69407;44.966;19.622;2023-06-04T05:56:12;101134.19;;;18.57;79.85
80102;BME280;69407;44.966;19.622;2023-06-04T05:58:38;101134.59;;;18.51;78.92
80102;BME280;69407;44.966;19.622;2023-06-04T06:01:03;101136.53;;;18.62;77.58
80102;BME280;69407;44.966;19.622;2023-06-04T06:03:29;101136.22;;;18.41;77.73
80102;BME280;69407;44.966;19.622;2023-06-04T06:05:54;101137.19;;;18.65;77.63
80102;BME280;69407;44.966;19.622;2023-06-04T06:08:22;101141.00;;;18.87;77.88
80102;BME280;69407;44.966;19.622;2023-06-04T06:10:47;101139.84;;;18.91;76.97
80102;BME280;69407;44.966;19.622;2023-06-04T06:13:13;101132.50;;;19.06;77.23
80102;BME280;69407;44.966;19.622;2023-06-04T06:15:39;101143.69;;;19.47;75.71
80102;BME280;69407;44.966;19.622;2023-06-04T06:18:04;101142.50;;;19.51;74.99
80102;BME280;69407;44.966;19.622;2023-06-04T06:20:30;101141.19;;;19.33;76.60
80102;BME280;69407;44.966;19.622;2023-06-04T06:22:57;101148.16;;;19.59;76.65
80102;BME280;69407;44.966;19.622;2023-06-04T06:25:23;101147.59;;;19.67;75.07
80102;BME280;69407;44.966;19.622;2023-06-04T06:27:48;101144.56;;;19.72;74.95
80102;BME280;69407;44.966;19.622;2023-06-04T06:30:14;101154.84;;;19.78;74.43
80102;BME280;69407;44.966;19.622;2023-06-04T06:32:39;101144.59;;;19.83;74.93
80102;BME280;69407;44.966;19.622;2023-06-04T06:35:05;101145.88;;;19.66;74.35
80102;BME280;69407;44.966;19.622;2023-06-04T06:37:31;101150.41;;;20.01;75.19
80102;BME280;69407;44.966;19.622;2023-06-04T06:39:56;101153.47;;;20.18;74.36
80102;BME280;69407;44.966;19.622;2023-06-04T06:42:22;101148.47;;;20.14;73.88
80102;BME280;69407;44.966;19.622;2023-06-04T06:44:48;101155.25;;;20.42;73.33
80102;BME280;69407;44.966;19.622;2023-06-04T06:47:13;101155.88;;;19.99;73.93
80102;BME280;69407;44.966;19.622;2023-06-04T06:49:40;101154.22;;;20.20;73.13
80102;BME280;69407;44.966;19.622;2023-06-04T06:52:05;101158.13;;;20.28;71.78
80102;BME280;69407;44.966;19.622;2023-06-04T06:54:31;101156.69;;;20.24;72.29
80102;BME280;69407;44.966;19.622;2023-06-04T06:56:57;101148.91;;;20.65;72.37
80102;BME280;69407;44.966;19.622;2023-06-04T06:59:23;101149.53;;;20.58;71.10
80102;BME280;69407;44.966;19.622;2023-06-04T07:01:49;101152.19;;;20.91;72.02
80102;BME280;69407;44.966;19.622;2023-06-04T07:04:15;101157.84;;;20.88;71.68
80102;BME280;69407;44.966;19.622;2023-06-04T07:06:41;101157.34;;;20.61;71.33
80102;BME280;69407;44.966;19.622;2023-06-04T07:09:07;101155.16;;;20.77;71.02
80102;BME280;69407;44.966;19.622;2023-06-04T07:11:32;101160.13;;;20.82;70.66
80102;BME280;69407;44.966;19.622;2023-06-04T07:13:58;101160.72;;;21.07;70.44
80102;BME280;69407;44.966;19.622;2023-06-04T07:16:23;101162.09;;;21.02;68.76
80102;BME280;69407;44.966;19.622;2023-06-04T07:18:49;101171.88;;;20.92;69.41
80102;BME280;69407;44.966;19.622;2023-06-04T07:21:15;101175.66;;;21.00;68.88
80102;BME280;69407;44.966;19.622;2023-06-04T07:23:41;101169.41;;;21.11;69.13
80102;BME280;69407;44.966;19.622;2023-06-04T07:26:06;101172.53;;;21.50;69.70
80102;BME280;69407;44.966;19.622;2023-06-04T07:28:32;101166.69;;;21.45;69.33
80102;BME280;69407;44.966;19.622;2023-06-04T07:30:57;101166.16;;;21.51;69.38
80102;BME280;69407;44.966;19.622;2023-06-04T07:33:24;101166.94;;;21.74;66.32
80102;BME280;69407;44.966;19.622;2023-06-04T07:35:50;101161.41;;;22.28;65.75
80102;BME280;69407;44.966;19.622;2023-06-04T07:38:16;101171.53;;;21.51;66.67
80102;BME280;69407;44.966;19.622;2023-06-04T07:40:41;101171.38;;;21.96;68.03
80102;BME280;69407;44.966;19.622;2023-06-04T07:43:07;101156.00;;;21.86;66.11
80102;BME280;69407;44.966;19.622;2023-06-04T07:45:33;101161.06;;;22.73;66.65
80102;BME280;69407;44.966;19.622;2023-06-04T07:47:58;101150.16;;;23.05;62.10
80102;BME280;69407;44.966;19.622;2023-06-04T07:50:24;101144.38;;;23.19;63.54
80102;BME280;69407;44.966;19.622;2023-06-04T07:52:50;101145.16;;;23.79;60.15
80102;BME280;69407;44.966;19.622;2023-06-04T07:55:16;101147.94;;;23.49;61.32
80102;BME280;69407;44.966;19.622;2023-06-04T07:57:41;101151.31;;;23.22;64.20
80102;BME280;69407;44.966;19.622;2023-06-04T08:00:07;101148.94;;;24.15;59.54
80102;BME280;69407;44.966;19.622;2023-06-04T08:02:33;101144.59;;;24.89;56.72
80102;BME280;69407;44.966;19.622;2023-06-04T08:05:00;101149.47;;;24.85;56.26
80102;BME280;69407;44.966;19.622;2023-06-04T08:07:25;101146.09;;;24.73;57.79
80102;BME280;69407;44.966;19.622;2023-06-04T08:09:51;101150.53;;;25.65;55.42
80102;BME280;69407;44.966;19.622;2023-06-04T08:12:17;101147.59;;;28.38;47.20
80102;BME280;69407;44.966;19.622;2023-06-04T08:14:42;101142.25;;;31.04;40.10
80102;BME280;69407;44.966;19.622;2023-06-04T08:17:08;101145.19;;;33.55;34.04
80102;BME280;69407;44.966;19.622;2023-06-04T08:19:33;101143.78;;;33.98;32.64
80102;BME280;69407;44.966;19.622;2023-06-04T08:21:59;101147.94;;;27.69;46.30
80102;BME280;69407;44.966;19.622;2023-06-04T08:24:25;101162.91;;;23.82;56.21
80102;BME280;69407;44.966;19.622;2023-06-04T08:26:51;101151.25;;;23.91;57.36
80102;BME280;69407;44.966;19.622;2023-06-04T08:29:17;101148.38;;;25.68;55.29
80102;BME280;69407;44.966;19.622;2023-06-04T08:31:42;101155.88;;;24.27;56.51
80102;BME280;69407;44.966;19.622;2023-06-04T08:34:08;101149.97;;;24.05;56.48
80102;BME280;69407;44.966;19.622;2023-06-04T08:36:33;101155.91;;;24.74;56.52
80102;BME280;69407;44.966;19.622;2023-06-04T08:38:59;101152.00;;;24.87;56.72
80102;BME280;69407;44.966;19.622;2023-06-04T08:41:38;101152.66;;;25.71;52.98
80102;BME280;69407;44.966;19.622;2023-06-04T08:44:07;101159.00;;;24.79;55.98
80102;BME280;69407;44.966;19.622;2023-06-04T08:46:39;101153.19;;;24.37;55.52
80102;BME280;69407;44.966;19.622;2023-06-04T08:49:05;101149.38;;;24.67;58.81
80102;BME280;69407;44.966;19.622;2023-06-04T08:51:33;101157.94;;;23.87;57.38
80102;BME280;69407;44.966;19.622;2023-06-04T08:54:03;101153.81;;;24.12;55.43
80102;BME280;69407;44.966;19.622;2023-06-04T08:56:29;101156.41;;;24.60;54.25
80102;BME280;69407;44.966;19.622;2023-06-04T08:59:01;101153.25;;;24.92;56.51
80102;BME280;69407;44.966;19.622;2023-06-04T09:01:26;101161.56;;;24.81;54.43
80102;BME280;69407;44.966;19.622;2023-06-04T09:03:52;101150.75;;;24.44;54.92
80102;BME280;69407;44.966;19.622;2023-06-04T09:06:18;101155.00;;;25.21;59.58
80102;BME280;69407;44.966;19.622;2023-06-04T09:08:44;101154.69;;;25.41;56.22
80102;BME280;69407;44.966;19.622;2023-06-04T09:11:13;101166.53;;;24.29;55.81
80102;BME280;69407;44.966;19.622;2023-06-04T09:13:40;101155.06;;;23.98;57.07
80102;BME280;69407;44.966;19.622;2023-06-04T09:16:08;101145.22;;;25.10;55.26
80102;BME280;69407;44.966;19.622;2023-06-04T09:18:34;101151.13;;;25.41;56.39
80102;BME280;69407;44.966;19.622;2023-06-04T09:21:03;101149.88;;;25.81;55.46
80102;BME280;69407;44.966;19.622;2023-06-04T09:23:29;101152.59;;;24.80;55.54
80102;BME280;69407;44.966;19.622;2023-06-04T09:25:55;101146.56;;;25.24;53.46
80102;BME280;69407;44.966;19.622;2023-06-04T09:28:21;101150.03;;;26.23;53.09
80102;BME280;69407;44.966;19.622;2023-06-04T09:30:53;101160.91;;;23.84;56.01
80102;BME280;69407;44.966;19.622;2023-06-04T09:33:19;101151.94;;;25.06;56.20
80102;BME280;69407;44.966;19.622;2023-06-04T09:35:58;101148.13;;;25.26;53.00
80102;BME280;69407;44.966;19.622;2023-06-04T09:38:33;101150.09;;;25.87;53.46
80102;BME280;69407;44.966;19.622;2023-06-04T09:40:59;101152.09;;;25.04;51.79
80102;BME280;69407;44.966;19.622;2023-06-04T09:43:26;101158.81;;;24.63;53.54
80102;BME280;69407;44.966;19.622;2023-06-04T09:45:51;101160.31;;;24.09;55.11
80102;BME280;69407;44.966;19.622;2023-06-04T09:48:21;101155.72;;;24.48;55.76
80102;BME280;69407;44.966;19.622;2023-06-04T09:50:47;101146.81;;;25.66;53.42
80102;BME280;69407;44.966;19.622;2023-06-04T09:53:14;101141.88;;;25.97;50.96
80102;BME280;69407;44.966;19.622;2023-06-04T09:55:41;101151.69;;;25.80;54.03
80102;BME280;69407;44.966;19.622;2023-06-04T09:58:07;101147.13;;;26.42;51.81
80102;BME280;69407;44.966;19.622;2023-06-04T10:00:33;101152.03;;;26.21;48.65
80102;BME280;69407;44.966;19.622;2023-06-04T10:03:01;101159.56;;;25.20;51.37
80102;BME280;69407;44.966;19.622;2023-06-04T10:05:31;101159.44;;;25.57;51.26
80102;BME280;69407;44.966;19.622;2023-06-04T10:08:03;101160.47;;;24.37;50.63
80102;BME280;69407;44.966;19.622;2023-06-04T10:10:29;101144.22;;;25.11;52.05
80102;BME280;69407;44.966;19.622;2023-06-04T10:13:05;101149.66;;;24.74;51.86
80102;BME280;69407;44.966;19.622;2023-06-04T10:15:32;101142.16;;;25.23;49.90
80102;BME280;69407;44.966;19.622;2023-06-04T10:18:02;101148.91;;;26.08;48.93
80102;BME280;69407;44.966;19.622;2023-06-04T10:20:30;101147.25;;;25.71;53.06
80102;BME280;69407;44.966;19.622;2023-06-04T10:22:56;101144.88;;;24.58;50.06
80102;BME280;69407;44.966;19.622;2023-06-04T10:25:21;101138.94;;;24.82;54.07
80102;BME280;69407;44.966;19.622;2023-06-04T10:27:48;101143.38;;;25.10;50.70
80102;BME280;69407;44.966;19.622;2023-06-04T10:30:15;101136.03;;;24.66;49.46
80102;BME280;69407;44.966;19.622;2023-06-04T10:32:41;101127.03;;;25.83;48.47
80102;BME280;69407;44.966;19.622;2023-06-04T10:35:07;101130.84;;;25.73;47.75
80102;BME280;69407;44.966;19.622;2023-06-04T10:37:33;101127.28;;;25.72;48.53
80102;BME280;69407;44.966;19.622;2023-06-04T10:39:59;101128.34;;;26.49;48.26
80102;BME280;69407;44.966;19.622;2023-06-04T10:42:25;101127.09;;;25.91;51.10
80102;BME280;69407;44.966;19.622;2023-06-04T10:44:55;101131.13;;;26.65;50.54
80102;BME280;69407;44.966;19.622;2023-06-04T10:47:25;101136.88;;;25.84;50.89
80102;BME280;69407;44.966;19.622;2023-06-04T10:49:51;101125.09;;;25.93;47.94
80102;BME280;69407;44.966;19.622;2023-06-04T10:52:18;101117.69;;;26.47;50.79
80102;BME280;69407;44.966;19.622;2023-06-04T10:54:45;101126.81;;;26.46;48.14
80102;BME280;69407;44.966;19.622;2023-06-04T10:57:12;101118.03;;;26.52;48.84
80102;BME280;69407;44.966;19.622;2023-06-04T10:59:38;101131.59;;;25.47;47.30
80102;BME280;69407;44.966;19.622;2023-06-04T11:02:08;101121.84;;;25.54;49.24
80102;BME280;69407;44.966;19.622;2023-06-04T11:04:35;101120.16;;;25.71;48.08
80102;BME280;69407;44.966;19.622;2023-06-04T11:07:08;101119.47;;;25.33;47.26
80102;BME280;69407;44.966;19.622;2023-06-04T11:09:35;101120.69;;;25.57;46.65
80102;BME280;69407;44.966;19.622;2023-06-04T11:12:02;101116.97;;;25.93;49.50
80102;BME280;69407;44.966;19.622;2023-06-04T11:14:29;101117.66;;;25.60;46.18
80102;BME280;69407;44.966;19.622;2023-06-04T11:16:55;101110.31;;;25.88;46.18
80102;BME280;69407;44.966;19.622;2023-06-04T11:19:20;101108.53;;;26.22;45.58
80102;BME280;69407;44.966;19.622;2023-06-04T11:21:46;101102.16;;;26.06;46.57
80102;BME280;69407;44.966;19.622;2023-06-04T11:24:12;101100.72;;;25.40;48.15
80102;BME280;69407;44.966;19.622;2023-06-04T11:26:38;101096.34;;;25.21;47.67
80102;BME280;69407;44.966;19.622;2023-06-04T11:29:11;101092.09;;;26.42;49.24
80102;BME280;69407;44.966;19.622;2023-06-04T11:31:44;101100.09;;;26.94;46.63
80102;BME280;69407;44.966;19.622;2023-06-04T11:34:10;101089.56;;;26.48;48.18
80102;BME280;69407;44.966;19.622;2023-06-04T11:36:38;101096.34;;;26.00;48.25
80102;BME280;69407;44.966;19.622;2023-06-04T11:39:05;101093.88;;;26.33;49.80
80102;BME280;69407;44.966;19.622;2023-06-04T11:41:34;101098.97;;;25.49;46.79
80102;BME280;69407;44.966;19.622;2023-06-04T11:44:05;101099.56;;;25.96;48.33
80102;BME280;69407;44.966;19.622;2023-06-04T11:46:35;101082.88;;;26.69;48.68
80102;BME280;69407;44.966;19.622;2023-06-04T11:49:01;101092.22;;;26.40;48.79
80102;BME280;69407;44.966;19.622;2023-06-04T11:51:27;101087.13;;;26.71;47.92
80102;BME280;69407;44.966;19.622;2023-06-04T11:53:53;101092.25;;;26.82;49.02
80102;BME280;69407;44.966;19.622;2023-06-04T11:56:20;101089.97;;;27.12;44.27
80102;BME280;69407;44.966;19.622;2023-06-04T11:58:46;101093.81;;;26.25;47.46
80102;BME280;69407;44.966;19.622;2023-06-04T12:01:12;101087.59;;;26.58;46.57
80102;BME280;69407;44.966;19.622;2023-06-04T12:03:40;101091.38;;;26.74;47.93
80102;BME280;69407;44.966;19.622;2023-06-04T12:06:15;101084.09;;;25.88;45.19
80102;BME280;69407;44.966;19.622;2023-06-04T12:08:52;101088.81;;;26.38;46.88
80102;BME280;69407;44.966;19.622;2023-06-04T12:11:28;101072.81;;;26.53;48.15
80102;BME280;69407;44.966;19.622;2023-06-04T12:14:04;101075.06;;;26.32;45.23
80102;BME280;69407;44.966;19.622;2023-06-04T12:16:30;101078.19;;;26.79;48.22
80102;BME280;69407;44.966;19.622;2023-06-04T12:19:10;101071.09;;;26.94;46.07
80102;BME280;69407;44.966;19.622;2023-06-04T12:21:37;101063.97;;;26.17;47.01
80102;BME280;69407;44.966;19.622;2023-06-04T12:24:11;101057.75;;;25.98;48.47
80102;BME280;69407;44.966;19.622;2023-06-04T12:26:37;101052.16;;;25.74;49.63
80102;BME280;69407;44.966;19.622;2023-06-04T12:29:13;101049.75;;;26.49;48.34
80102;BME280;69407;44.966;19.622;2023-06-04T12:31:39;101048.72;;;26.92;49.17
80102;BME280;69407;44.966;19.622;2023-06-04T12:34:05;101048.09;;;27.06;45.33
80102;BME280;69407;44.966;19.622;2023-06-04T12:36:31;101050.50;;;26.33;45.29
80102;BME280;69407;44.966;19.622;2023-06-04T12:39:01;101036.59;;;26.02;45.86
80102;BME280;69407;44.966;19.622;2023-06-04T12:41:27;101042.53;;;26.32;45.75
80102;BME280;69407;44.966;19.622;2023-06-04T12:43:53;101040.94;;;26.47;45.46
80102;BME280;69407;44.966;19.622;2023-06-04T12:46:19;101041.41;;;26.08;48.83